sensor_id;sensor_type;location;lat;lon;timestamp;P1;durP1;ratioP1;P2;durP2;ratioP2
80313;SDS011;69628;47.516;18.828;2023-04-24T00:00:30;13.68;;;5.30;;
80313;SDS011;69628;47.516;18.828;2023-04-24T00:01:31;14.00;;;5.90;;
80313;SDS011;69628;47.516;18.828;2023-04-24T00:02:32;10.98;;;6.25;;
80313;SDS011;69628;47.516;18.828;2023-04-24T00:03:32;10.70;;;6.25;;
80313;SDS011;69628;47.516;18.828;2023-04-24T00:04:33;11.13;;;5.95;;
80313;SDS011;69628;47.516;18.828;2023-04-24T00:05:33;10.50;;;5.57;;
80313;SDS011;69628;47.516;18.828;2023-04-24T00:06:34;13.02;;;6.10;;
80313;SDS011;69628;47.516;18.828;2023-04-24T00:07:34;13.60;;;5.63;;
80313;SDS011;69628;47.516;18.828;2023-04-24T00:08:35;8.30;;;5.80;;
80313;SDS011;69628;47.516;18.828;2023-04-24T00:09:36;10.13;;;5.72;;
80313;SDS011;69628;47.516;18.828;2023-04-24T00:10:36;17.75;;;6.15;;
80313;SDS011;69628;47.516;18.828;2023-04-24T00:11:37;10.88;;;5.82;;
80313;SDS011;69628;47.516;18.828;2023-04-24T00:12:38;11.32;;;5.80;;
80313;SDS011;69628;47.516;18.828;2023-04-24T00:13:38;12.52;;;5.53;;
80313;SDS011;69628;47.516;18.828;2023-04-24T00:14:39;12.27;;;5.75;;
80313;SDS011;69628;47.516;18.828;2023-04-24T00:15:39;15.82;;;5.95;;
80313;SDS011;69628;47.516;18.828;2023-04-24T00:16:39;14.68;;;6.28;;
80313;SDS011;69628;47.516;18.828;2023-04-24T00:17:40;13.85;;;6.40;;
80313;SDS011;69628;47.516;18.828;2023-04-24T00:18:40;8.55;;;5.60;;
80313;SDS011;69628;47.516;18.828;2023-04-24T00:19:41;11.88;;;5.80;;
80313;SDS011;69628;47.516;18.828;2023-04-24T00:20:41;9.50;;;5.70;;
80313;SDS011;69628;47.516;18.828;2023-04-24T00:21:43;10.95;;;6.07;;
80313;SDS011;69628;47.516;18.828;2023-04-24T00:22:44;10.55;;;5.65;;
80313;SDS011;69628;47.516;18.828;2023-04-24T00:23:44;16.05;;;6.05;;
80313;SDS011;69628;47.516;18.828;2023-04-24T00:24:44;12.20;;;6.25;;
80313;SDS011;69628;47.516;18.828;2023-04-24T00:25:45;14.25;;;5.65;;
80313;SDS011;69628;47.516;18.828;2023-04-24T00:26:45;15.82;;;6.40;;
80313;SDS011;69628;47.516;18.828;2023-04-24T00:27:45;13.25;;;6.15;;
80313;SDS011;69628;47.516;18.828;2023-04-24T00:28:46;15.02;;;6.35;;
80313;SDS011;69628;47.516;18.828;2023-04-24T00:29:46;11.95;;;5.75;;
80313;SDS011;69628;47.516;18.828;2023-04-24T00:30:47;14.23;;;5.57;;
80313;SDS011;69628;47.516;18.828;2023-04-24T00:31:47;11.77;;;5.85;;
80313;SDS011;69628;47.516;18.828;2023-04-24T00:32:48;12.77;;;5.53;;
80313;SDS011;69628;47.516;18.828;2023-04-24T00:33:48;13.68;;;5.47;;
80313;SDS011;69628;47.516;18.828;2023-04-24T00:34:48;11.18;;;5.85;;
80313;SDS011;69628;47.516;18.828;2023-04-24T00:35:49;14.55;;;6.00;;
80313;SDS011;69628;47.516;18.828;2023-04-24T00:36:49;13.95;;;6.32;;
80313;SDS011;69628;47.516;18.828;2023-04-24T00:37:52;11.95;;;5.97;;
80313;SDS011;69628;47.516;18.828;2023-04-24T00:38:53;13.95;;;5.85;;
80313;SDS011;69628;47.516;18.828;2023-04-24T00:39:54;16.23;;;6.03;;
80313;SDS011;69628;47.516;18.828;2023-04-24T00:40:54;13.00;;;5.72;;
80313;SDS011;69628;47.516;18.828;2023-04-24T00:41:54;15.20;;;6.10;;
80313;SDS011;69628;47.516;18.828;2023-04-24T00:42:55;14.98;;;6.07;;
80313;SDS011;69628;47.516;18.828;2023-04-24T00:43:56;13.57;;;6.05;;
80313;SDS011;69628;47.516;18.828;2023-04-24T00:44:56;20.30;;;5.95;;
80313;SDS011;69628;47.516;18.828;2023-04-24T00:45:57;14.55;;;5.80;;
80313;SDS011;69628;47.516;18.828;2023-04-24T00:46:59;14.98;;;6.40;;
80313;SDS011;69628;47.516;18.828;2023-04-24T00:48:00;11.77;;;6.00;;
80313;SDS011;69628;47.516;18.828;2023-04-24T00:49:01;9.07;;;5.50;;
80313;SDS011;69628;47.516;18.828;2023-04-24T00:50:05;20.60;;;6.43;;
80313;SDS011;69628;47.516;18.828;2023-04-24T00:51:07;10.50;;;5.97;;
80313;SDS011;69628;47.516;18.828;2023-04-24T00:52:08;9.25;;;5.28;;
80313;SDS011;69628;47.516;18.828;2023-04-24T00:53:08;12.23;;;5.68;;
80313;SDS011;69628;47.516;18.828;2023-04-24T00:54:09;10.95;;;6.07;;
80313;SDS011;69628;47.516;18.828;2023-04-24T00:55:09;11.07;;;6.10;;
80313;SDS011;69628;47.516;18.828;2023-04-24T00:56:10;10.95;;;5.85;;
80313;SDS011;69628;47.516;18.828;2023-04-24T00:57:11;12.40;;;6.03;;
80313;SDS011;69628;47.516;18.828;2023-04-24T00:58:13;13.88;;;5.80;;
80313;SDS011;69628;47.516;18.828;2023-04-24T00:59:14;10.45;;;5.88;;
80313;SDS011;69628;47.516;18.828;2023-04-24T01:00:16;12.00;;;5.97;;
80313;SDS011;69628;47.516;18.828;2023-04-24T01:01:17;10.27;;;5.88;;
80313;SDS011;69628;47.516;18.828;2023-04-24T01:02:20;11.13;;;6.55;;
80313;SDS011;69628;47.516;18.828;2023-04-24T01:03:25;9.98;;;5.88;;
80313;SDS011;69628;47.516;18.828;2023-04-24T01:04:28;12.45;;;6.38;;
80313;SDS011;69628;47.516;18.828;2023-04-24T01:05:28;15.82;;;6.55;;
80313;SDS011;69628;47.516;18.828;2023-04-24T01:06:29;14.60;;;5.97;;
80313;SDS011;69628;47.516;18.828;2023-04-24T01:07:33;10.90;;;5.97;;
80313;SDS011;69628;47.516;18.828;2023-04-24T01:08:34;15.65;;;5.80;;
80313;SDS011;69628;47.516;18.828;2023-04-24T01:09:39;14.75;;;5.90;;
80313;SDS011;69628;47.516;18.828;2023-04-24T01:10:43;11.57;;;5.78;;
80313;SDS011;69628;47.516;18.828;2023-04-24T01:11:45;12.27;;;6.03;;
80313;SDS011;69628;47.516;18.828;2023-04-24T01:12:45;10.27;;;5.70;;
80313;SDS011;69628;47.516;18.828;2023-04-24T01:13:47;10.13;;;6.93;;
80313;SDS011;69628;47.516;18.828;2023-04-24T01:14:47;14.05;;;6.57;;
80313;SDS011;69628;47.516;18.828;2023-04-24T01:15:47;11.40;;;6.00;;
80313;SDS011;69628;47.516;18.828;2023-04-24T01:16:48;12.68;;;6.18;;
80313;SDS011;69628;47.516;18.828;2023-04-24T01:17:48;17.10;;;6.40;;
80313;SDS011;69628;47.516;18.828;2023-04-24T01:18:50;11.13;;;6.65;;
80313;SDS011;69628;47.516;18.828;2023-04-24T01:19:51;9.43;;;6.15;;
80313;SDS011;69628;47.516;18.828;2023-04-24T01:20:57;19.10;;;7.35;;
80313;SDS011;69628;47.516;18.828;2023-04-24T01:21:58;17.38;;;6.10;;
80313;SDS011;69628;47.516;18.828;2023-04-24T01:23:02;15.43;;;5.93;;
80313;SDS011;69628;47.516;18.828;2023-04-24T01:24:03;11.93;;;6.40;;
80313;SDS011;69628;47.516;18.828;2023-04-24T01:25:05;13.90;;;6.97;;
80313;SDS011;69628;47.516;18.828;2023-04-24T01:26:05;12.48;;;6.30;;
80313;SDS011;69628;47.516;18.828;2023-04-24T01:27:06;9.95;;;6.28;;
80313;SDS011;69628;47.516;18.828;2023-04-24T01:28:07;14.02;;;6.70;;
80313;SDS011;69628;47.516;18.828;2023-04-24T01:29:07;11.07;;;6.25;;
80313;SDS011;69628;47.516;18.828;2023-04-24T01:30:08;12.90;;;6.60;;
80313;SDS011;69628;47.516;18.828;2023-04-24T01:31:08;10.57;;;6.35;;
80313;SDS011;69628;47.516;18.828;2023-04-24T01:32:09;14.15;;;6.53;;
80313;SDS011;69628;47.516;18.828;2023-04-24T01:33:09;14.90;;;6.00;;
80313;SDS011;69628;47.516;18.828;2023-04-24T01:34:10;12.15;;;6.57;;
80313;SDS011;69628;47.516;18.828;2023-04-24T01:35:10;14.23;;;6.22;;
80313;SDS011;69628;47.516;18.828;2023-04-24T01:36:11;10.15;;;6.32;;
80313;SDS011;69628;47.516;18.828;2023-04-24T01:37:11;10.20;;;6.05;;
80313;SDS011;69628;47.516;18.828;2023-04-24T01:38:12;10.02;;;6.57;;
80313;SDS011;69628;47.516;18.828;2023-04-24T01:39:12;14.23;;;7.00;;
80313;SDS011;69628;47.516;18.828;2023-04-24T01:40:13;12.85;;;6.07;;
80313;SDS011;69628;47.516;18.828;2023-04-24T01:41:13;9.43;;;6.38;;
80313;SDS011;69628;47.516;18.828;2023-04-24T01:42:14;13.75;;;6.90;;
80313;SDS011;69628;47.516;18.828;2023-04-24T01:43:14;11.43;;;7.03;;
80313;SDS011;69628;47.516;18.828;2023-04-24T01:44:15;12.63;;;6.57;;
80313;SDS011;69628;47.516;18.828;2023-04-24T01:45:16;10.18;;;6.45;;
80313;SDS011;69628;47.516;18.828;2023-04-24T01:46:16;10.15;;;6.13;;
80313;SDS011;69628;47.516;18.828;2023-04-24T01:47:16;12.00;;;6.40;;
80313;SDS011;69628;47.516;18.828;2023-04-24T01:48:17;10.27;;;6.70;;
80313;SDS011;69628;47.516;18.828;2023-04-24T01:49:18;12.48;;;6.70;;
80313;SDS011;69628;47.516;18.828;2023-04-24T01:50:18;13.35;;;6.85;;
80313;SDS011;69628;47.516;18.828;2023-04-24T01:51:19;15.90;;;6.55;;
80313;SDS011;69628;47.516;18.828;2023-04-24T01:52:19;11.52;;;6.03;;
80313;SDS011;69628;47.516;18.828;2023-04-24T01:53:19;14.27;;;6.40;;
80313;SDS011;69628;47.516;18.828;2023-04-24T01:54:20;12.80;;;6.43;;
80313;SDS011;69628;47.516;18.828;2023-04-24T01:55:20;11.68;;;5.97;;
80313;SDS011;69628;47.516;18.828;2023-04-24T01:56:21;14.10;;;6.65;;
80313;SDS011;69628;47.516;18.828;2023-04-24T01:57:22;9.82;;;6.18;;
80313;SDS011;69628;47.516;18.828;2023-04-24T01:58:23;10.68;;;6.35;;
80313;SDS011;69628;47.516;18.828;2023-04-24T01:59:23;12.30;;;6.57;;
80313;SDS011;69628;47.516;18.828;2023-04-24T02:00:25;8.52;;;6.30;;
80313;SDS011;69628;47.516;18.828;2023-04-24T02:01:26;10.40;;;6.30;;
80313;SDS011;69628;47.516;18.828;2023-04-24T02:02:26;12.00;;;6.75;;
80313;SDS011;69628;47.516;18.828;2023-04-24T02:03:29;10.20;;;6.10;;
80313;SDS011;69628;47.516;18.828;2023-04-24T02:04:30;13.32;;;6.50;;
80313;SDS011;69628;47.516;18.828;2023-04-24T02:05:30;10.48;;;6.20;;
80313;SDS011;69628;47.516;18.828;2023-04-24T02:06:31;8.80;;;5.95;;
80313;SDS011;69628;47.516;18.828;2023-04-24T02:07:31;10.88;;;5.80;;
80313;SDS011;69628;47.516;18.828;2023-04-24T02:08:32;16.95;;;6.85;;
80313;SDS011;69628;47.516;18.828;2023-04-24T02:09:33;12.80;;;6.55;;
80313;SDS011;69628;47.516;18.828;2023-04-24T02:10:33;11.85;;;6.38;;
80313;SDS011;69628;47.516;18.828;2023-04-24T02:11:33;11.63;;;6.10;;
80313;SDS011;69628;47.516;18.828;2023-04-24T02:12:34;11.15;;;6.43;;
80313;SDS011;69628;47.516;18.828;2023-04-24T02:13:34;15.68;;;5.97;;
80313;SDS011;69628;47.516;18.828;2023-04-24T02:14:34;9.90;;;5.93;;
80313;SDS011;69628;47.516;18.828;2023-04-24T02:15:35;13.15;;;6.07;;
80313;SDS011;69628;47.516;18.828;2023-04-24T02:16:36;11.40;;;6.15;;
80313;SDS011;69628;47.516;18.828;2023-04-24T02:17:36;10.95;;;6.60;;
80313;SDS011;69628;47.516;18.828;2023-04-24T02:18:36;10.25;;;5.90;;
80313;SDS011;69628;47.516;18.828;2023-04-24T02:19:37;11.80;;;5.68;;
80313;SDS011;69628;47.516;18.828;2023-04-24T02:20:37;12.23;;;5.85;;
80313;SDS011;69628;47.516;18.828;2023-04-24T02:21:37;8.50;;;5.50;;
80313;SDS011;69628;47.516;18.828;2023-04-24T02:22:38;10.93;;;5.80;;
80313;SDS011;69628;47.516;18.828;2023-04-24T02:23:38;11.98;;;5.45;;
80313;SDS011;69628;47.516;18.828;2023-04-24T02:24:39;11.25;;;5.75;;
80313;SDS011;69628;47.516;18.828;2023-04-24T02:25:39;7.57;;;5.00;;
80313;SDS011;69628;47.516;18.828;2023-04-24T02:26:39;9.30;;;5.57;;
80313;SDS011;69628;47.516;18.828;2023-04-24T02:27:40;7.68;;;5.10;;
80313;SDS011;69628;47.516;18.828;2023-04-24T02:28:40;10.13;;;5.47;;
80313;SDS011;69628;47.516;18.828;2023-04-24T02:29:40;10.30;;;5.72;;
80313;SDS011;69628;47.516;18.828;2023-04-24T02:30:41;9.57;;;5.78;;
80313;SDS011;69628;47.516;18.828;2023-04-24T02:31:41;10.48;;;5.70;;
80313;SDS011;69628;47.516;18.828;2023-04-24T02:32:42;12.50;;;5.30;;
80313;SDS011;69628;47.516;18.828;2023-04-24T02:33:42;7.65;;;5.70;;
80313;SDS011;69628;47.516;18.828;2023-04-24T02:34:42;8.85;;;5.03;;
80313;SDS011;69628;47.516;18.828;2023-04-24T02:35:43;11.07;;;5.32;;
80313;SDS011;69628;47.516;18.828;2023-04-24T02:36:43;7.80;;;5.03;;
80313;SDS011;69628;47.516;18.828;2023-04-24T02:37:43;8.30;;;5.03;;
80313;SDS011;69628;47.516;18.828;2023-04-24T02:38:44;14.05;;;5.68;;
80313;SDS011;69628;47.516;18.828;2023-04-24T02:39:45;8.82;;;5.25;;
80313;SDS011;69628;47.516;18.828;2023-04-24T02:40:45;9.55;;;5.20;;
80313;SDS011;69628;47.516;18.828;2023-04-24T02:41:46;7.53;;;5.00;;
80313;SDS011;69628;47.516;18.828;2023-04-24T02:42:46;10.18;;;4.53;;
80313;SDS011;69628;47.516;18.828;2023-04-24T02:43:46;10.10;;;4.97;;
80313;SDS011;69628;47.516;18.828;2023-04-24T02:44:47;11.02;;;5.65;;
80313;SDS011;69628;47.516;18.828;2023-04-24T02:45:47;10.48;;;5.43;;
80313;SDS011;69628;47.516;18.828;2023-04-24T02:46:48;8.13;;;4.97;;
80313;SDS011;69628;47.516;18.828;2023-04-24T02:47:49;13.50;;;5.00;;
80313;SDS011;69628;47.516;18.828;2023-04-24T02:48:49;11.40;;;5.22;;
80313;SDS011;69628;47.516;18.828;2023-04-24T02:49:50;10.63;;;5.10;;
80313;SDS011;69628;47.516;18.828;2023-04-24T02:50:50;8.15;;;4.55;;
80313;SDS011;69628;47.516;18.828;2023-04-24T02:51:51;11.63;;;5.53;;
80313;SDS011;69628;47.516;18.828;2023-04-24T02:52:51;8.13;;;4.82;;
80313;SDS011;69628;47.516;18.828;2023-04-24T02:53:52;12.38;;;5.03;;
80313;SDS011;69628;47.516;18.828;2023-04-24T02:54:52;9.35;;;4.82;;
80313;SDS011;69628;47.516;18.828;2023-04-24T02:55:53;7.13;;;5.00;;
80313;SDS011;69628;47.516;18.828;2023-04-24T02:56:54;8.98;;;5.03;;
80313;SDS011;69628;47.516;18.828;2023-04-24T02:57:55;10.35;;;5.32;;
80313;SDS011;69628;47.516;18.828;2023-04-24T02:58:55;7.72;;;5.25;;
80313;SDS011;69628;47.516;18.828;2023-04-24T02:59:55;9.63;;;5.03;;
80313;SDS011;69628;47.516;18.828;2023-04-24T03:00:56;12.98;;;5.57;;
80313;SDS011;69628;47.516;18.828;2023-04-24T03:01:56;12.30;;;5.20;;
80313;SDS011;69628;47.516;18.828;2023-04-24T03:02:56;12.00;;;4.90;;
80313;SDS011;69628;47.516;18.828;2023-04-24T03:03:57;8.90;;;5.65;;
80313;SDS011;69628;47.516;18.828;2023-04-24T03:04:58;12.95;;;5.45;;
80313;SDS011;69628;47.516;18.828;2023-04-24T03:05:58;8.88;;;5.30;;
80313;SDS011;69628;47.516;18.828;2023-04-24T03:06:59;10.45;;;5.22;;
80313;SDS011;69628;47.516;18.828;2023-04-24T03:07:59;7.65;;;5.45;;
80313;SDS011;69628;47.516;18.828;2023-04-24T03:09:00;10.02;;;5.35;;
80313;SDS011;69628;47.516;18.828;2023-04-24T03:10:00;7.22;;;5.10;;
80313;SDS011;69628;47.516;18.828;2023-04-24T03:11:00;7.82;;;4.93;;
80313;SDS011;69628;47.516;18.828;2023-04-24T03:12:01;7.10;;;5.05;;
80313;SDS011;69628;47.516;18.828;2023-04-24T03:13:01;9.75;;;5.70;;
80313;SDS011;69628;47.516;18.828;2023-04-24T03:14:01;9.55;;;4.90;;
80313;SDS011;69628;47.516;18.828;2023-04-24T03:15:02;8.43;;;5.05;;
80313;SDS011;69628;47.516;18.828;2023-04-24T03:16:03;9.77;;;5.45;;
80313;SDS011;69628;47.516;18.828;2023-04-24T03:17:04;8.63;;;5.00;;
80313;SDS011;69628;47.516;18.828;2023-04-24T03:18:04;7.82;;;4.78;;
80313;SDS011;69628;47.516;18.828;2023-04-24T03:19:04;8.85;;;4.88;;
80313;SDS011;69628;47.516;18.828;2023-04-24T03:20:05;8.65;;;5.53;;
80313;SDS011;69628;47.516;18.828;2023-04-24T03:21:06;9.15;;;4.88;;
80313;SDS011;69628;47.516;18.828;2023-04-24T03:22:07;9.45;;;5.35;;
80313;SDS011;69628;47.516;18.828;2023-04-24T03:23:09;12.18;;;5.03;;
80313;SDS011;69628;47.516;18.828;2023-04-24T03:24:09;7.43;;;5.22;;
80313;SDS011;69628;47.516;18.828;2023-04-24T03:25:09;10.48;;;5.28;;
80313;SDS011;69628;47.516;18.828;2023-04-24T03:26:10;8.35;;;4.97;;
80313;SDS011;69628;47.516;18.828;2023-04-24T03:27:10;11.02;;;5.57;;
80313;SDS011;69628;47.516;18.828;2023-04-24T03:28:11;9.25;;;5.53;;
80313;SDS011;69628;47.516;18.828;2023-04-24T03:29:11;7.93;;;4.78;;
80313;SDS011;69628;47.516;18.828;2023-04-24T03:30:11;10.98;;;5.40;;
80313;SDS011;69628;47.516;18.828;2023-04-24T03:31:12;14.50;;;7.82;;
80313;SDS011;69628;47.516;18.828;2023-04-24T03:32:12;25.00;;;11.18;;
80313;SDS011;69628;47.516;18.828;2023-04-24T03:33:13;22.40;;;10.18;;
80313;SDS011;69628;47.516;18.828;2023-04-24T03:34:13;22.73;;;12.45;;
80313;SDS011;69628;47.516;18.828;2023-04-24T03:35:14;28.17;;;17.33;;
80313;SDS011;69628;47.516;18.828;2023-04-24T03:36:14;19.67;;;10.02;;
80313;SDS011;69628;47.516;18.828;2023-04-24T03:37:15;16.73;;;9.75;;
80313;SDS011;69628;47.516;18.828;2023-04-24T03:38:16;11.40;;;6.07;;
80313;SDS011;69628;47.516;18.828;2023-04-24T03:39:16;13.20;;;6.97;;
80313;SDS011;69628;47.516;18.828;2023-04-24T03:40:17;13.73;;;6.80;;
80313;SDS011;69628;47.516;18.828;2023-04-24T03:41:17;10.93;;;5.90;;
80313;SDS011;69628;47.516;18.828;2023-04-24T03:42:17;10.60;;;5.95;;
80313;SDS011;69628;47.516;18.828;2023-04-24T03:43:18;11.07;;;5.40;;
80313;SDS011;69628;47.516;18.828;2023-04-24T03:44:18;9.38;;;5.00;;
80313;SDS011;69628;47.516;18.828;2023-04-24T03:45:19;11.25;;;5.07;;
80313;SDS011;69628;47.516;18.828;2023-04-24T03:46:19;10.75;;;5.53;;
80313;SDS011;69628;47.516;18.828;2023-04-24T03:47:19;10.60;;;5.25;;
80313;SDS011;69628;47.516;18.828;2023-04-24T03:48:20;9.93;;;4.78;;
80313;SDS011;69628;47.516;18.828;2023-04-24T03:49:20;10.40;;;5.40;;
80313;SDS011;69628;47.516;18.828;2023-04-24T03:50:21;9.57;;;5.53;;
80313;SDS011;69628;47.516;18.828;2023-04-24T03:51:22;11.90;;;5.72;;
80313;SDS011;69628;47.516;18.828;2023-04-24T03:52:22;9.80;;;5.72;;
80313;SDS011;69628;47.516;18.828;2023-04-24T03:53:23;11.70;;;5.38;;
80313;SDS011;69628;47.516;18.828;2023-04-24T03:54:23;8.60;;;5.25;;
80313;SDS011;69628;47.516;18.828;2023-04-24T03:55:24;9.75;;;5.30;;
80313;SDS011;69628;47.516;18.828;2023-04-24T03:56:24;11.00;;;4.82;;
80313;SDS011;69628;47.516;18.828;2023-04-24T03:57:25;12.68;;;5.70;;
80313;SDS011;69628;47.516;18.828;2023-04-24T03:58:25;9.50;;;5.38;;
80313;SDS011;69628;47.516;18.828;2023-04-24T03:59:25;10.68;;;5.13;;
80313;SDS011;69628;47.516;18.828;2023-04-24T04:00:26;10.02;;;5.30;;
80313;SDS011;69628;47.516;18.828;2023-04-24T04:01:26;8.73;;;5.10;;
80313;SDS011;69628;47.516;18.828;2023-04-24T04:02:28;13.40;;;5.13;;
80313;SDS011;69628;47.516;18.828;2023-04-24T04:03:28;10.23;;;5.07;;
80313;SDS011;69628;47.516;18.828;2023-04-24T04:04:28;15.10;;;5.68;;
80313;SDS011;69628;47.516;18.828;2023-04-24T04:05:29;11.70;;;5.70;;
80313;SDS011;69628;47.516;18.828;2023-04-24T04:06:29;9.70;;;5.03;;
80313;SDS011;69628;47.516;18.828;2023-04-24T04:07:30;9.35;;;4.95;;
80313;SDS011;69628;47.516;18.828;2023-04-24T04:08:31;10.40;;;5.05;;
80313;SDS011;69628;47.516;18.828;2023-04-24T04:09:31;8.95;;;5.40;;
80313;SDS011;69628;47.516;18.828;2023-04-24T04:10:33;8.85;;;5.28;;
80313;SDS011;69628;47.516;18.828;2023-04-24T04:11:33;10.77;;;4.90;;
80313;SDS011;69628;47.516;18.828;2023-04-24T04:12:33;9.40;;;5.60;;
80313;SDS011;69628;47.516;18.828;2023-04-24T04:13:34;9.90;;;5.90;;
80313;SDS011;69628;47.516;18.828;2023-04-24T04:14:34;10.70;;;5.53;;
80313;SDS011;69628;47.516;18.828;2023-04-24T04:15:35;8.95;;;5.07;;
80313;SDS011;69628;47.516;18.828;2023-04-24T04:16:35;11.15;;;5.40;;
80313;SDS011;69628;47.516;18.828;2023-04-24T04:17:36;9.75;;;5.65;;
80313;SDS011;69628;47.516;18.828;2023-04-24T04:18:37;11.05;;;5.43;;
80313;SDS011;69628;47.516;18.828;2023-04-24T04:19:38;15.43;;;6.00;;
80313;SDS011;69628;47.516;18.828;2023-04-24T04:20:38;11.95;;;5.88;;
80313;SDS011;69628;47.516;18.828;2023-04-24T04:21:39;9.55;;;5.35;;
80313;SDS011;69628;47.516;18.828;2023-04-24T04:22:39;11.23;;;5.97;;
80313;SDS011;69628;47.516;18.828;2023-04-24T04:23:40;11.57;;;5.68;;
80313;SDS011;69628;47.516;18.828;2023-04-24T04:24:40;8.63;;;5.30;;
80313;SDS011;69628;47.516;18.828;2023-04-24T04:25:40;11.75;;;5.57;;
80313;SDS011;69628;47.516;18.828;2023-04-24T04:26:41;10.30;;;5.72;;
80313;SDS011;69628;47.516;18.828;2023-04-24T04:27:47;10.95;;;5.40;;
80313;SDS011;69628;47.516;18.828;2023-04-24T04:28:53;8.88;;;5.80;;
80313;SDS011;69628;47.516;18.828;2023-04-24T04:29:54;11.63;;;6.30;;
80313;SDS011;69628;47.516;18.828;2023-04-24T04:30:56;8.73;;;6.13;;
80313;SDS011;69628;47.516;18.828;2023-04-24T04:31:57;11.60;;;6.18;;
80313;SDS011;69628;47.516;18.828;2023-04-24T04:32:58;13.38;;;6.32;;
80313;SDS011;69628;47.516;18.828;2023-04-24T04:33:59;12.52;;;6.13;;
80313;SDS011;69628;47.516;18.828;2023-04-24T04:35:00;10.65;;;6.57;;
80313;SDS011;69628;47.516;18.828;2023-04-24T04:36:03;12.35;;;6.63;;
80313;SDS011;69628;47.516;18.828;2023-04-24T04:37:04;14.27;;;6.53;;
80313;SDS011;69628;47.516;18.828;2023-04-24T04:38:04;14.90;;;6.75;;
80313;SDS011;69628;47.516;18.828;2023-04-24T04:39:08;13.75;;;6.93;;
80313;SDS011;69628;47.516;18.828;2023-04-24T04:40:08;14.43;;;6.97;;
80313;SDS011;69628;47.516;18.828;2023-04-24T04:41:12;11.95;;;6.68;;
80313;SDS011;69628;47.516;18.828;2023-04-24T04:42:12;17.00;;;7.10;;
80313;SDS011;69628;47.516;18.828;2023-04-24T04:43:13;14.98;;;7.00;;
80313;SDS011;69628;47.516;18.828;2023-04-24T04:44:14;12.48;;;6.55;;
80313;SDS011;69628;47.516;18.828;2023-04-24T04:45:15;13.10;;;7.22;;
80313;SDS011;69628;47.516;18.828;2023-04-24T04:46:16;9.27;;;6.53;;
80313;SDS011;69628;47.516;18.828;2023-04-24T04:47:17;9.77;;;6.45;;
80313;SDS011;69628;47.516;18.828;2023-04-24T04:48:18;10.98;;;6.07;;
80313;SDS011;69628;47.516;18.828;2023-04-24T04:49:18;11.40;;;6.57;;
80313;SDS011;69628;47.516;18.828;2023-04-24T04:50:21;11.30;;;6.38;;
80313;SDS011;69628;47.516;18.828;2023-04-24T04:51:22;12.70;;;6.68;;
80313;SDS011;69628;47.516;18.828;2023-04-24T04:52:23;13.30;;;6.93;;
80313;SDS011;69628;47.516;18.828;2023-04-24T04:53:25;17.88;;;6.63;;
80313;SDS011;69628;47.516;18.828;2023-04-24T04:54:25;11.18;;;6.53;;
80313;SDS011;69628;47.516;18.828;2023-04-24T04:55:26;13.30;;;6.13;;
80313;SDS011;69628;47.516;18.828;2023-04-24T04:56:26;13.75;;;6.47;;
80313;SDS011;69628;47.516;18.828;2023-04-24T04:57:27;12.30;;;6.75;;
80313;SDS011;69628;47.516;18.828;2023-04-24T04:58:27;12.98;;;6.55;;
80313;SDS011;69628;47.516;18.828;2023-04-24T04:59:28;11.30;;;6.18;;
80313;SDS011;69628;47.516;18.828;2023-04-24T05:00:28;11.68;;;6.63;;
80313;SDS011;69628;47.516;18.828;2023-04-24T05:01:33;12.18;;;6.78;;
80313;SDS011;69628;47.516;18.828;2023-04-24T05:02:34;10.43;;;6.63;;
80313;SDS011;69628;47.516;18.828;2023-04-24T05:03:34;11.55;;;6.78;;
80313;SDS011;69628;47.516;18.828;2023-04-24T05:04:35;10.23;;;6.80;;
80313;SDS011;69628;47.516;18.828;2023-04-24T05:05:36;11.15;;;7.13;;
80313;SDS011;69628;47.516;18.828;2023-04-24T05:06:40;10.43;;;7.22;;
80313;SDS011;69628;47.516;18.828;2023-04-24T05:07:40;9.85;;;6.00;;
80313;SDS011;69628;47.516;18.828;2023-04-24T05:08:41;13.00;;;6.45;;
80313;SDS011;69628;47.516;18.828;2023-04-24T05:09:41;13.85;;;6.80;;
80313;SDS011;69628;47.516;18.828;2023-04-24T05:10:41;16.25;;;7.35;;
80313;SDS011;69628;47.516;18.828;2023-04-24T05:11:42;15.77;;;6.88;;
80313;SDS011;69628;47.516;18.828;2023-04-24T05:12:42;12.23;;;6.60;;
80313;SDS011;69628;47.516;18.828;2023-04-24T05:13:43;13.63;;;6.70;;
80313;SDS011;69628;47.516;18.828;2023-04-24T05:14:43;13.48;;;7.05;;
80313;SDS011;69628;47.516;18.828;2023-04-24T05:15:43;17.25;;;7.53;;
80313;SDS011;69628;47.516;18.828;2023-04-24T05:16:44;17.17;;;7.18;;
80313;SDS011;69628;47.516;18.828;2023-04-24T05:17:44;11.70;;;7.03;;
80313;SDS011;69628;47.516;18.828;2023-04-24T05:18:45;13.93;;;7.32;;
80313;SDS011;69628;47.516;18.828;2023-04-24T05:19:45;13.13;;;7.57;;
80313;SDS011;69628;47.516;18.828;2023-04-24T05:20:46;9.73;;;6.85;;
80313;SDS011;69628;47.516;18.828;2023-04-24T05:21:46;12.90;;;6.47;;
80313;SDS011;69628;47.516;18.828;2023-04-24T05:22:47;11.77;;;6.85;;
80313;SDS011;69628;47.516;18.828;2023-04-24T05:23:47;14.73;;;7.45;;
80313;SDS011;69628;47.516;18.828;2023-04-24T05:24:47;11.73;;;8.02;;
80313;SDS011;69628;47.516;18.828;2023-04-24T05:25:48;16.40;;;7.72;;
80313;SDS011;69628;47.516;18.828;2023-04-24T05:26:48;11.32;;;7.15;;
80313;SDS011;69628;47.516;18.828;2023-04-24T05:27:49;13.82;;;6.88;;
80313;SDS011;69628;47.516;18.828;2023-04-24T05:28:49;11.15;;;6.63;;
80313;SDS011;69628;47.516;18.828;2023-04-24T05:29:50;11.50;;;7.43;;
80313;SDS011;69628;47.516;18.828;2023-04-24T05:30:50;13.10;;;7.35;;
80313;SDS011;69628;47.516;18.828;2023-04-24T05:31:51;16.55;;;7.35;;
80313;SDS011;69628;47.516;18.828;2023-04-24T05:32:51;13.18;;;7.20;;
80313;SDS011;69628;47.516;18.828;2023-04-24T05:33:52;15.00;;;7.82;;
80313;SDS011;69628;47.516;18.828;2023-04-24T05:34:52;12.88;;;7.20;;
80313;SDS011;69628;47.516;18.828;2023-04-24T05:35:52;13.30;;;7.03;;
80313;SDS011;69628;47.516;18.828;2023-04-24T05:36:53;13.30;;;7.40;;
80313;SDS011;69628;47.516;18.828;2023-04-24T05:37:53;15.55;;;7.95;;
80313;SDS011;69628;47.516;18.828;2023-04-24T05:38:54;13.43;;;7.35;;
80313;SDS011;69628;47.516;18.828;2023-04-24T05:39:54;15.40;;;7.60;;
80313;SDS011;69628;47.516;18.828;2023-04-24T05:40:54;12.95;;;7.40;;
80313;SDS011;69628;47.516;18.828;2023-04-24T05:41:55;12.13;;;7.40;;
80313;SDS011;69628;47.516;18.828;2023-04-24T05:42:57;10.75;;;7.38;;
80313;SDS011;69628;47.516;18.828;2023-04-24T05:43:58;14.60;;;7.80;;
80313;SDS011;69628;47.516;18.828;2023-04-24T05:44:58;13.00;;;7.68;;
80313;SDS011;69628;47.516;18.828;2023-04-24T05:45:59;10.85;;;6.88;;
80313;SDS011;69628;47.516;18.828;2023-04-24T05:46:59;14.73;;;7.43;;
80313;SDS011;69628;47.516;18.828;2023-04-24T05:48:00;15.40;;;8.02;;
80313;SDS011;69628;47.516;18.828;2023-04-24T05:49:01;12.43;;;7.18;;
80313;SDS011;69628;47.516;18.828;2023-04-24T05:50:02;15.68;;;7.57;;
80313;SDS011;69628;47.516;18.828;2023-04-24T05:51:02;14.25;;;7.57;;
80313;SDS011;69628;47.516;18.828;2023-04-24T05:52:03;14.75;;;7.32;;
80313;SDS011;69628;47.516;18.828;2023-04-24T05:53:05;15.75;;;7.43;;
80313;SDS011;69628;47.516;18.828;2023-04-24T05:54:07;12.18;;;7.47;;
80313;SDS011;69628;47.516;18.828;2023-04-24T05:55:07;13.82;;;7.32;;
80313;SDS011;69628;47.516;18.828;2023-04-24T05:56:08;13.35;;;7.13;;